Besancon-La Veze Airport


Codes: LFQM/GBQ
Name: Besancon-La Veze Airport
City: Besancon/La Veze
Country: France
Elevation: 1271 ft.
Wikipedia:

Photos at Besancon-La Veze Airport


   Photos courtesy of SpottingLog. You can add your own sightings and photos by signing up for a free trial today.



No photos found.

Weather at Besancon-La Veze Airport


Time (UTC)DescriptionTempratureWindCloud coverageVisibilityPressureHumidity
16-Jun-2024 12:00Overcast Clouds20°C13 mph, SW93%10000m1012hPa51%
16-Jun-2024 15:00Overcast Clouds19°C9 mph, SW100%10000m1012hPa61%
16-Jun-2024 18:00Light Rain15°C9 mph, W100%10000m1013hPa93%
16-Jun-2024 21:00Light Rain14°C4 mph, S100%10000m1014hPa97%
17-Jun-2024 00:00Overcast Clouds13°C2 mph, SE100%10000m1015hPa95%
17-Jun-2024 03:00Overcast Clouds13°C2 mph, SE100%10000m1014hPa95%
17-Jun-2024 06:00Light Rain14°C4 mph, S100%10000m1015hPa98%
17-Jun-2024 09:00Light Rain14°C2 mph, S100%10000m1016hPa99%
17-Jun-2024 12:00Light Rain16°C2 mph, S100%10000m1016hPa96%
17-Jun-2024 15:00Light Rain19°C2 mph, SE100%10000m1015hPa78%
17-Jun-2024 18:00Light Rain18°C2 mph, N100%10000m1014hPa91%
17-Jun-2024 21:00Moderate Rain15°C4 mph, E88%10000m1015hPa97%
18-Jun-2024 00:00Light Rain14°C4 mph, SE94%10000m1015hPa94%
18-Jun-2024 03:00Broken Clouds14°C4 mph, SE70%10000m1014hPa95%
18-Jun-2024 06:00Broken Clouds17°C2 mph, E55%10000m1014hPa91%
18-Jun-2024 09:00Overcast Clouds24°C2 mph, NW100%10000m1014hPa62%
18-Jun-2024 12:00Overcast Clouds27°C7 mph, W100%10000m1014hPa51%
18-Jun-2024 15:00Overcast Clouds27°C11 mph, W100%10000m1013hPa50%
18-Jun-2024 18:00Light Rain22°C2 mph, W94%9331m1014hPa87%
18-Jun-2024 21:00Light Rain17°C4 mph, NW100%10000m1017hPa98%
19-Jun-2024 00:00Light Rain16°C2 mph, S97%10000m1017hPa97%
19-Jun-2024 03:00Overcast Clouds15°C2 mph, S96%10000m1018hPa96%
19-Jun-2024 06:00Overcast Clouds17°C2 mph, NE94%10000m1018hPa94%
19-Jun-2024 09:00Overcast Clouds23°C4 mph, N97%10000m1019hPa69%
19-Jun-2024 12:00Overcast Clouds26°C7 mph, N92%10000m1018hPa54%
19-Jun-2024 15:00Clear Sky27°C7 mph, N0%10000m1018hPa56%
19-Jun-2024 18:00Clear Sky24°C7 mph, NE7%10000m1018hPa80%
19-Jun-2024 21:00Few Clouds18°C7 mph, E18%10000m1018hPa95%
20-Jun-2024 00:00Few Clouds17°C4 mph, E12%10000m1017hPa96%
20-Jun-2024 03:00Broken Clouds17°C2 mph, SE62%10000m1016hPa91%
20-Jun-2024 06:00Broken Clouds21°C4 mph, SW59%10000m1018hPa79%
20-Jun-2024 09:00Broken Clouds28°C4 mph, E63%10000m1015hPa52%
20-Jun-2024 12:00Broken Clouds29°C4 mph, SE80%10000m1012hPa56%
20-Jun-2024 15:00Overcast Clouds32°C9 mph, S100%10000m1011hPa42%
20-Jun-2024 18:00Overcast Clouds27°C4 mph, SE97%10000m1011hPa63%
20-Jun-2024 21:00Overcast Clouds24°C4 mph, S91%10000m1010hPa55%
21-Jun-2024 00:00Light Rain20°C11 mph, SW57%10000m1015hPa73%
21-Jun-2024 03:00Light Rain17°C4 mph, SW90%10000m1017hPa95%
21-Jun-2024 06:00Moderate Rain16°C2 mph, NW95%10000m1016hPa99%
21-Jun-2024 09:00Moderate Rain16°C2 mph, SW96%7932m1016hPa99%